Time;durP1;ratioP1;P1;durP2;ratioP2;P2;SDS_P1;SDS_P2;PMS_P1;PMS_P2;Temp;Humidity;BMP_temperature;BMP_pressure;BME280_temperature;BME280_humidity;BME280_pressure;Samples;Min_cycle;Max_cycle;Signal;HPM_P1;HPM_P2
2022/01/16 00:01:03;;;;;;;;;;;;;;;0.02;100.00;99103.77;1641585;85;24422;-82
2022/01/16 00:06:06;;;;;;;;;;;;;;;-0.09;100.00;99106.96;1635011;86;24845;-83
2022/01/16 00:08:34;;;;;;;;;;;;;;;-0.17;100.00;99117.39;1621113;86;23326;-83
2022/01/16 00:11:00;;;;;;;;;;;;;;;-0.21;100.00;99117.44;1624892;87;26065;-83
2022/01/16 00:13:26;;;;;;;;;;;;;;;-0.24;100.00;99112.36;1626882;86;24480;-83
2022/01/16 00:15:52;;;;;;;;;;;;;;;-0.24;100.00;99126.50;1636123;86;20296;-83
2022/01/16 00:18:24;;;;;;;;;;;;;;;-0.23;100.00;99120.49;1627903;86;24723;-84
2022/01/16 00:20:55;;;;;;;;;;;;;;;-0.25;100.00;99113.23;1630627;87;22817;-83
2022/01/16 00:23:27;;;;;;;;;;;;;;;-0.30;100.00;99096.59;1629322;87;26110;-84
2022/01/16 00:25:53;;;;;;;;;;;;;;;-0.33;100.00;99080.38;1626605;87;24460;-84
2022/01/16 00:28:20;;;;;;;;;;;;;;;-0.29;100.00;99085.44;1627035;86;20549;-83
2022/01/16 00:30:46;;;;;;;;;;;;;;;-0.29;100.00;99091.02;1628330;87;24816;-84
2022/01/16 00:33:13;;;;;;;;;;;;;;;-0.31;100.00;99083.31;1627036;86;21941;-84
2022/01/16 00:35:39;;;;;;;;;;;;;;;-0.29;100.00;99077.72;1619749;87;26033;-84
2022/01/16 00:38:05;;;;;;;;;;;;;;;-0.25;100.00;99034.36;1594879;88;24381;-84
2022/01/16 00:40:31;;;;;;;;;;;;;;;-0.17;100.00;99030.38;1629079;87;20210;-84
2022/01/16 00:42:57;;;;;;;;;;;;;;;-0.14;100.00;99028.59;1622848;88;24801;-84
2022/01/16 00:45:24;;;;;;;;;;;;;;;-0.08;100.00;99047.78;1615217;87;21938;-84
2022/01/16 00:47:50;;;;;;;;;;;;;;;-0.05;100.00;99039.14;1620073;88;25907;-84
2022/01/16 00:50:17;;;;;;;;;;;;;;;0.00;100.00;99056.66;1616211;87;25195;-84
2022/01/16 00:52:43;;;;;;;;;;;;;;;0.04;100.00;99062.16;1623943;87;20327;-84
2022/01/16 00:55:09;;;;;;;;;;;;;;;0.05;100.00;99056.58;1621738;86;24765;-84
2022/01/16 00:57:35;;;;;;;;;;;;;;;0.00;100.00;99057.48;1623930;86;22024;-84
2022/01/16 01:00:02;;;;;;;;;;;;;;;-0.09;100.00;99022.92;1622861;86;26681;-84
2022/01/16 01:02:28;;;;;;;;;;;;;;;-0.14;100.00;99050.89;1613230;86;24661;-84
2022/01/16 01:04:54;;;;;;;;;;;;;;;-0.13;100.00;99064.17;1589603;88;20472;-84
2022/01/16 01:07:22;;;;;;;;;;;;;;;-0.05;100.00;99059.72;1602676;88;24781;-84
2022/01/16 01:09:56;;;;;;;;;;;;;;;-0.12;100.00;99069.30;1630163;86;22697;-84
2022/01/16 01:12:29;;;;;;;;;;;;;;;-0.22;100.00;99052.76;1624401;86;25985;-84
2022/01/16 01:15:05;;;;;;;;;;;;;;;-0.21;100.00;99018.42;1594834;87;24419;-84
2022/01/16 01:17:24;;;;;;;;;;;;;;;-0.21;100.00;99036.42;1618417;87;20339;-84
2022/01/16 01:19:50;;;;;;;;;;;;;;;-0.20;100.00;99049.70;1605299;86;24651;-84
2022/01/16 01:22:16;;;;;;;;;;;;;;;-0.14;100.00;99029.02;1617374;86;22085;-84
2022/01/16 01:24:42;;;;;;;;;;;;;;;-0.07;100.00;99057.20;1593880;88;26045;-84
2022/01/16 01:27:23;;;;;;;;;;;;;;;-0.03;100.00;99056.27;1625774;87;24360;-84
2022/01/16 01:29:53;;;;;;;;;;;;;;;-0.09;100.00;99020.35;1627166;87;20248;-84
2022/01/16 01:32:13;;;;;;;;;;;;;;;-0.10;100.00;99032.80;1625724;87;24881;-84
2022/01/16 01:34:39;;;;;;;;;;;;;;;-0.10;100.00;98939.34;1602164;86;20845;-84
2022/01/16 01:37:05;;;;;;;;;;;;;;;-0.15;100.00;98909.86;1622224;87;26050;-84
2022/01/16 01:39:32;;;;;;;;;;;;;;;-0.19;100.00;98918.95;1623449;86;24378;-84
2022/01/16 01:42:07;;;;;;;;;;;;;;;-0.27;100.00;98920.84;1604195;88;20260;-84
2022/01/16 01:52:42;;;;;;;;;;;;;;;-0.34;100.00;98939.81;1610483;88;24154;-85
2022/01/16 01:55:09;;;;;;;;;;;;;;;-0.41;100.00;98964.78;1628070;87;20340;-85
2022/01/16 01:57:36;;;;;;;;;;;;;;;-0.45;100.00;98952.44;1626759;86;24802;-85
2022/01/16 02:00:06;;;;;;;;;;;;;;;-0.52;100.00;98948.70;1625782;88;22019;-85
2022/01/16 02:02:57;;;;;;;;;;;;;;;-0.57;100.00;98950.50;1627290;87;26328;-85
2022/01/16 02:05:10;;;;;;;;;;;;;;;-0.60;100.00;98965.52;1622239;86;24422;-84
2022/01/16 02:07:41;;;;;;;;;;;;;;;-0.64;100.00;98953.61;1627179;87;20227;-85
2022/01/16 02:10:08;;;;;;;;;;;;;;;-0.70;100.00;98920.30;1624021;86;24831;-84
2022/01/16 02:12:37;;;;;;;;;;;;;;;-0.69;100.00;98933.56;1598246;88;21945;-84
2022/01/16 02:15:29;;;;;;;;;;;;;;;-0.70;100.00;98949.00;1595071;88;26031;-83
2022/01/16 02:28:54;;;;;;;;;;;;;;;-0.86;100.00;98973.66;1607769;86;26822;-83
2022/01/16 02:31:19;;;;;;;;;;;;;;;-0.86;100.00;98970.23;1620674;86;24841;-83
2022/01/16 02:36:35;;;;;;;;;;;;;;;-0.95;100.00;98978.09;1621604;86;24790;-83
2022/01/16 02:38:47;;;;;;;;;;;;;;;-0.99;100.00;98976.45;1615412;86;22171;-83
2022/01/16 02:41:14;;;;;;;;;;;;;;;-1.05;100.00;98980.39;1594057;87;26128;-84
2022/01/16 02:43:46;;;;;;;;;;;;;;;-1.07;100.00;98978.27;1634303;85;24651;-83
2022/01/16 02:48:49;;;;;;;;;;;;;;;-1.13;100.00;98970.66;1619817;87;24882;-84
2022/01/16 02:51:22;;;;;;;;;;;;;;;-1.13;100.00;98977.08;1590852;88;22006;-85
2022/01/16 02:53:57;;;;;;;;;;;;;;;-1.12;100.00;98976.21;1591566;89;26076;-84
2022/01/16 02:56:23;;;;;;;;;;;;;;;-1.10;100.00;98971.91;1601814;88;25308;-84
2022/01/16 02:58:51;;;;;;;;;;;;;;;-1.10;100.00;98972.77;1617595;87;20258;-83
2022/01/16 03:01:18;;;;;;;;;;;;;;;-1.10;100.00;98974.05;1627487;87;24828;-83
2022/01/16 03:03:45;;;;;;;;;;;;;;;-1.11;100.00;98975.34;1627417;88;22023;-84
2022/01/16 03:06:11;;;;;;;;;;;;;;;-1.15;100.00;98984.82;1633632;87;26024;-85
2022/01/16 03:08:37;;;;;;;;;;;;;;;-1.17;100.00;98975.00;1634436;86;24545;-84
2022/01/16 03:13:34;;;;;;;;;;;;;;;-1.20;100.00;98966.50;1633873;87;24897;-84
2022/01/16 03:16:01;;;;;;;;;;;;;;;-1.18;100.00;98963.02;1634017;87;22715;-85
2022/01/16 03:23:40;;;;;;;;;;;;;;;-1.14;100.00;98949.26;1634068;86;20169;-86
2022/01/16 03:26:06;;;;;;;;;;;;;;;-1.11;100.00;98954.37;1634206;86;24782;-85
2022/01/16 03:28:32;;;;;;;;;;;;;;;-1.11;100.00;98952.23;1634293;87;22083;-84
2022/01/16 03:30:58;;;;;;;;;;;;;;;-1.11;100.00;98949.66;1634129;86;26076;-85
2022/01/16 03:33:24;;;;;;;;;;;;;;;-1.10;100.00;98941.09;1634342;87;24488;-84
2022/01/16 03:35:51;;;;;;;;;;;;;;;-1.10;100.00;98939.81;1632316;87;20249;-84
2022/01/16 03:38:20;;;;;;;;;;;;;;;-1.11;100.00;98931.69;1634166;86;25552;-84
2022/01/16 03:40:46;;;;;;;;;;;;;;;-1.14;100.00;98926.58;1633354;87;21997;-84
2022/01/16 03:43:14;;;;;;;;;;;;;;;-1.18;100.00;98924.50;1634032;87;25923;-84
2022/01/16 03:45:45;;;;;;;;;;;;;;;-1.23;100.00;98925.02;1633900;86;24442;-84
2022/01/16 03:48:14;;;;;;;;;;;;;;;-1.27;100.00;98916.52;1633872;87;20333;-85
2022/01/16 03:50:40;;;;;;;;;;;;;;;-1.27;100.00;98924.66;1634192;86;24742;-84
2022/01/16 03:53:06;;;;;;;;;;;;;;;-1.28;100.00;98908.40;1634801;87;22032;-84
2022/01/16 03:55:33;;;;;;;;;;;;;;;-1.28;100.00;98909.69;1633686;86;26019;-84
2022/01/16 03:57:59;;;;;;;;;;;;;;;-1.27;100.00;98906.25;1634152;87;24118;-84
2022/01/16 04:00:25;;;;;;;;;;;;;;;-1.23;100.00;98906.19;1633968;86;20223;-84
2022/01/16 04:02:52;;;;;;;;;;;;;;;-1.20;100.00;98903.59;1632440;87;24726;-84
2022/01/16 04:05:18;;;;;;;;;;;;;;;-1.15;100.00;98901.80;1633799;87;21982;-84
2022/01/16 04:07:44;;;;;;;;;;;;;;;-1.17;100.00;98897.11;1630493;88;26047;-83
2022/01/16 04:10:10;;;;;;;;;;;;;;;-1.16;100.00;98898.81;1628064;87;25321;-83
2022/01/16 04:12:38;;;;;;;;;;;;;;;-1.19;100.00;98898.41;1614478;86;20349;-83
2022/01/16 04:17:42;;;;;;;;;;;;;;;-1.19;100.00;98893.70;1630178;86;21936;-83
2022/01/16 04:20:08;;;;;;;;;;;;;;;-1.24;100.00;98891.66;1626834;86;25997;-83
2022/01/16 04:22:35;;;;;;;;;;;;;;;-1.22;100.00;98895.05;1629018;85;24374;-83
2022/01/16 04:25:01;;;;;;;;;;;;;;;-1.27;100.00;98894.70;1630623;86;20271;-83
2022/01/16 04:27:27;;;;;;;;;;;;;;;-1.29;100.00;98894.30;1602410;88;24777;-83
2022/01/16 04:29:53;;;;;;;;;;;;;;;-1.32;100.00;98893.92;1608141;87;22038;-83
2022/01/16 04:32:19;;;;;;;;;;;;;;;-1.30;100.00;98892.16;1631474;86;26777;-83
2022/01/16 04:34:45;;;;;;;;;;;;;;;-1.34;100.00;98887.10;1628129;87;24485;-83
2022/01/16 04:37:11;;;;;;;;;;;;;;;-1.35;100.00;98885.40;1630693;86;20265;-83
2022/01/16 04:39:37;;;;;;;;;;;;;;;-1.36;100.00;98888.40;1634046;86;24818;-83
2022/01/16 04:44:49;;;;;;;;;;;;;;;-1.38;100.00;98871.34;1633889;86;26055;-83
2022/01/16 04:47:16;;;;;;;;;;;;;;;-1.37;100.00;98879.03;1634624;86;24417;-84
2022/01/16 04:49:42;;;;;;;;;;;;;;;-1.35;100.00;98875.98;1636741;86;20229;-84
2022/01/16 04:52:08;;;;;;;;;;;;;;;-1.36;100.00;98867.86;1645676;86;24791;-83
2022/01/16 04:54:34;;;;;;;;;;;;;;;-1.37;100.00;98868.77;1630722;86;21970;-84
2022/01/16 04:57:00;;;;;;;;;;;;;;;-1.37;100.00;98870.47;1601134;88;25952;-84
2022/01/16 04:59:26;;;;;;;;;;;;;;;-1.36;100.00;98856.74;1603629;88;24421;-84
2022/01/16 05:01:52;;;;;;;;;;;;;;;-1.34;100.00;98860.14;1607576;88;20589;-83
2022/01/16 05:04:19;;;;;;;;;;;;;;;-1.33;100.00;98857.56;1641038;85;24811;-83
2022/01/16 05:06:50;;;;;;;;;;;;;;;-1.32;100.00;98854.12;1642411;85;22090;-83
2022/01/16 05:09:17;;;;;;;;;;;;;;;-1.33;100.00;98852.43;1632893;86;26068;-83
2022/01/16 05:11:44;;;;;;;;;;;;;;;-1.27;100.00;98856.63;1594496;88;24480;-82
2022/01/16 05:16:55;;;;;;;;;;;;;;;-1.29;100.00;98859.20;1594288;88;24734;-84
2022/01/16 05:19:21;;;;;;;;;;;;;;;-1.29;100.00;98854.50;1620679;87;22019;-84
2022/01/16 05:21:47;;;;;;;;;;;;;;;-1.31;100.00;98847.28;1613658;88;26028;-84
2022/01/16 05:24:14;;;;;;;;;;;;;;;-1.32;100.00;98839.16;1623825;86;24400;-84
2022/01/16 05:26:41;;;;;;;;;;;;;;;-1.36;100.00;98840.91;1621191;88;20505;-84
2022/01/16 05:29:13;;;;;;;;;;;;;;;-1.36;100.00;98847.33;1621974;87;24934;-83
2022/01/16 05:31:44;;;;;;;;;;;;;;;-1.37;100.00;98845.66;1621240;87;22008;-84
2022/01/16 05:34:15;;;;;;;;;;;;;;;-1.37;100.00;98840.52;1595187;88;26152;-83
2022/01/16 05:36:47;;;;;;;;;;;;;;;-1.34;100.00;98833.20;1620859;86;25428;-83
2022/01/16 05:39:13;;;;;;;;;;;;;;;-1.33;100.00;98829.76;1594068;88;20292;-83
2022/01/16 05:41:39;;;;;;;;;;;;;;;-1.37;100.00;98825.13;1621147;86;24780;-84
2022/01/16 05:44:05;;;;;;;;;;;;;;;-1.38;100.00;98824.70;1619275;86;21983;-84
2022/01/16 05:46:31;;;;;;;;;;;;;;;-1.41;100.00;98827.30;1623294;87;21223;-84
2022/01/16 05:48:57;;;;;;;;;;;;;;;-1.43;100.00;98819.23;1624450;87;24394;-84
2022/01/16 05:51:23;;;;;;;;;;;;;;;-1.43;100.00;98820.08;1623078;87;20265;-84
2022/01/16 05:53:51;;;;;;;;;;;;;;;-1.41;100.00;98818.31;1622018;87;24824;-83
2022/01/16 05:56:17;;;;;;;;;;;;;;;-1.42;100.00;98814.05;1621767;86;22000;-83
2022/01/16 05:58:43;;;;;;;;;;;;;;;-1.39;100.00;98818.30;1618108;87;25965;-84
2022/01/16 06:01:09;;;;;;;;;;;;;;;-1.38;100.00;98808.02;1623507;86;24510;-83
2022/01/16 06:03:35;;;;;;;;;;;;;;;-1.39;100.00;98806.32;1601935;88;20260;-83
2022/01/16 06:06:01;;;;;;;;;;;;;;;-1.37;100.00;98808.44;1636900;85;24808;-84
2022/01/16 06:08:27;;;;;;;;;;;;;;;-1.35;100.00;98806.67;1622582;86;21975;-84
2022/01/16 06:10:54;;;;;;;;;;;;;;;-1.34;100.00;98804.52;1623291;86;26044;-83
2022/01/16 06:13:20;;;;;;;;;;;;;;;-1.34;100.00;98807.09;1593807;88;24397;-83
2022/01/16 06:15:46;;;;;;;;;;;;;;;-1.32;100.00;98811.77;1596765;88;20231;-83
2022/01/16 06:18:13;;;;;;;;;;;;;;;-1.31;100.00;98812.63;1617560;88;24830;-83
2022/01/16 06:20:41;;;;;;;;;;;;;;;-1.32;100.00;98807.08;1622773;86;22230;-82
2022/01/16 06:23:14;;;;;;;;;;;;;;;-1.33;100.00;98806.66;1635962;87;26749;-83
2022/01/16 06:25:40;;;;;;;;;;;;;;;-1.36;100.00;98810.11;1635985;86;24688;-83
2022/01/16 06:28:06;;;;;;;;;;;;;;;-1.36;100.00;98798.55;1635666;86;20533;-83
2022/01/16 06:30:33;;;;;;;;;;;;;;;-1.36;100.00;98803.69;1635431;86;24793;-83
2022/01/16 06:32:59;;;;;;;;;;;;;;;-1.34;100.00;98793.41;1636157;86;21849;-83
2022/01/16 06:35:25;;;;;;;;;;;;;;;-1.34;100.00;98781.85;1636351;87;21117;-83
2022/01/16 06:37:51;;;;;;;;;;;;;;;-1.32;100.00;98785.25;1635974;87;24475;-83
2022/01/16 06:40:19;;;;;;;;;;;;;;;-1.31;100.00;98780.07;1636032;87;20230;-83
2022/01/16 06:42:46;;;;;;;;;;;;;;;-1.31;100.00;98774.94;1623895;88;24999;-83
2022/01/16 06:45:13;;;;;;;;;;;;;;;-1.30;100.00;98774.50;1593099;88;22002;-83
2022/01/16 06:47:39;;;;;;;;;;;;;;;-1.31;100.00;98771.55;1621875;85;26007;-83
2022/01/16 06:50:06;;;;;;;;;;;;;;;-1.31;100.00;98763.38;1615140;87;24412;-84
2022/01/16 06:52:32;;;;;;;;;;;;;;;-1.32;100.00;98763.00;1623747;88;20246;-84
2022/01/16 06:54:58;;;;;;;;;;;;;;;-1.30;100.00;98772.78;1620077;86;25407;-84
2022/01/16 06:57:24;;;;;;;;;;;;;;;-1.29;100.00;98771.06;1618482;87;20289;-84
2022/01/16 06:59:50;;;;;;;;;;;;;;;-1.31;100.00;98773.66;1623451;87;26040;-84
2022/01/16 07:02:17;;;;;;;;;;;;;;;-1.31;100.00;98778.79;1621799;87;24426;-83
2022/01/16 07:04:44;;;;;;;;;;;;;;;-1.29;100.00;98773.20;1624482;87;20223;-83
2022/01/16 07:07:11;;;;;;;;;;;;;;;-1.26;100.00;98767.18;1634371;86;24932;-83
2022/01/16 07:09:39;;;;;;;;;;;;;;;-1.23;100.00;98764.98;1651922;86;21674;-83
2022/01/16 07:12:05;;;;;;;;;;;;;;;-1.19;100.00;98754.62;1648555;86;26061;-83
2022/01/16 07:14:31;;;;;;;;;;;;;;;-1.16;100.00;98758.87;1646197;86;24374;-83
2022/01/16 07:16:57;;;;;;;;;;;;;;;-1.11;100.00;98754.50;1646898;86;20319;-83
2022/01/16 07:19:23;;;;;;;;;;;;;;;-1.08;100.00;98754.43;1621094;86;24637;-83
2022/01/16 07:21:49;;;;;;;;;;;;;;;-1.04;100.00;98763.80;1625933;87;22216;-83
2022/01/16 07:24:16;;;;;;;;;;;;;;;-1.00;100.00;98756.44;1637730;86;26064;-83
2022/01/16 07:26:43;;;;;;;;;;;;;;;-0.97;100.00;98755.93;1641282;87;24987;-83
2022/01/16 07:29:09;;;;;;;;;;;;;;;-0.95;100.00;98750.34;1640305;86;20249;-83
2022/01/16 07:31:38;;;;;;;;;;;;;;;-0.89;100.00;98746.81;1629814;86;20249;-85
2022/01/16 07:34:03;;;;;;;;;;;;;;;-0.85;100.00;98748.00;1627642;86;22749;-83
2022/01/16 07:36:29;;;;;;;;;;;;;;;-0.79;100.00;98754.74;1627938;86;26138;-83
2022/01/16 07:38:55;;;;;;;;;;;;;;;-0.76;100.00;98755.95;1623770;87;24552;-82
2022/01/16 07:41:21;;;;;;;;;;;;;;;-0.69;100.00;98754.11;1639577;86;20507;-82
2022/01/16 07:43:47;;;;;;;;;;;;;;;-0.66;99.96;98750.22;1640491;86;25684;-82
2022/01/16 07:46:13;;;;;;;;;;;;;;;-0.60;99.81;98753.95;1639349;86;22024;-82
2022/01/16 07:48:40;;;;;;;;;;;;;;;-0.54;99.69;98743.08;1609951;88;25980;-82
2022/01/16 07:51:06;;;;;;;;;;;;;;;-0.52;99.55;98734.91;1610364;87;20309;-82
2022/01/16 07:53:32;;;;;;;;;;;;;;;-0.46;99.42;98737.36;1609262;87;20235;-82
2022/01/16 07:55:58;;;;;;;;;;;;;;;-0.41;99.32;98739.83;1609795;88;24831;-82
2022/01/16 07:58:24;;;;;;;;;;;;;;;-0.38;99.15;98744.08;1616761;88;21949;-83
2022/01/16 08:00:50;;;;;;;;;;;;;;;-0.31;99.00;98745.18;1641347;86;26026;-84
2022/01/16 08:03:16;;;;;;;;;;;;;;;-0.26;98.85;98736.08;1610731;88;24421;-83
2022/01/16 08:05:42;;;;;;;;;;;;;;;-0.17;98.73;98733.33;1613345;88;20216;-83
2022/01/16 08:08:09;;;;;;;;;;;;;;;-0.09;98.59;98733.55;1625878;86;24711;-83
2022/01/16 08:10:35;;;;;;;;;;;;;;;-0.02;98.42;98734.26;1590159;89;22084;-84
2022/01/16 08:13:01;;;;;;;;;;;;;;;0.02;98.24;98737.16;1631135;86;26054;-83
2022/01/16 08:15:27;;;;;;;;;;;;;;;0.10;98.05;98737.00;1631914;86;24417;-83
2022/01/16 08:17:53;;;;;;;;;;;;;;;0.16;97.79;98733.00;1631704;87;20461;-83
2022/01/16 08:20:19;;;;;;;;;;;;;;;0.22;97.58;98727.23;1631272;88;24829;-83
2022/01/16 08:22:46;;;;;;;;;;;;;;;0.29;97.38;98724.93;1631674;86;21965;-83
2022/01/16 08:25:13;;;;;;;;;;;;;;;0.32;97.18;98723.59;1631533;88;26073;-83
2022/01/16 08:27:39;;;;;;;;;;;;;;;0.37;96.96;98723.03;1631402;88;24530;-83
2022/01/16 08:30:11;;;;;;;;;;;;;;;0.43;96.80;98713.47;1631503;87;20226;-84
2022/01/16 08:32:38;;;;;;;;;;;;;;;0.50;96.63;98718.84;1636961;86;24638;-84
2022/01/16 08:35:11;;;;;;;;;;;;;;;0.57;96.44;98717.38;1631689;86;21945;-84
2022/01/16 08:37:39;;;;;;;;;;;;;;;0.63;96.21;98704.34;1624531;87;25586;-83
2022/01/16 08:40:06;;;;;;;;;;;;;;;0.68;95.99;98695.20;1636817;86;25106;-83
2022/01/16 08:42:35;;;;;;;;;;;;;;;0.75;95.83;98700.61;1620901;85;20519;-84
2022/01/16 08:45:01;;;;;;;;;;;;;;;0.80;95.64;98693.61;1635520;87;24868;-84
2022/01/16 08:47:28;;;;;;;;;;;;;;;0.87;95.39;98687.86;1636099;87;22573;-83
2022/01/16 08:49:54;;;;;;;;;;;;;;;0.91;95.13;98684.30;1636141;87;26088;-83
2022/01/16 08:52:21;;;;;;;;;;;;;;;0.96;94.93;98685.86;1617793;86;24611;-83
2022/01/16 08:54:48;;;;;;;;;;;;;;;1.01;94.69;98678.85;1618947;86;20308;-83
2022/01/16 08:57:14;;;;;;;;;;;;;;;1.08;94.48;98675.22;1592786;88;24806;-83
2022/01/16 08:59:40;;;;;;;;;;;;;;;1.14;94.25;98680.66;1593754;90;22026;-84
2022/01/16 09:02:07;;;;;;;;;;;;;;;1.14;94.00;98679.36;1596037;88;26083;-83
2022/01/16 09:04:33;;;;;;;;;;;;;;;1.17;93.80;98674.95;1591237;90;24426;-84
2022/01/16 09:06:59;;;;;;;;;;;;;;;1.23;93.63;98673.50;1623315;86;20258;-84
2022/01/16 09:09:25;;;;;;;;;;;;;;;1.31;93.51;98669.86;1622394;87;21587;-83
2022/01/16 09:11:51;;;;;;;;;;;;;;;1.37;93.40;98669.66;1622612;87;22082;-83
2022/01/16 09:14:17;;;;;;;;;;;;;;;1.46;93.29;98672.83;1627463;87;26067;-84
2022/01/16 09:16:49;;;;;;;;;;;;;;;1.55;93.15;98667.83;1625717;87;24303;-86
2022/01/16 09:19:15;;;;;;;;;;;;;;;1.64;93.01;98666.25;1623050;87;20456;-86
2022/01/16 09:21:45;;;;;;;;;;;;;;;1.77;92.81;98659.00;1617180;87;24732;-85
2022/01/16 09:24:13;;;;;;;;;;;;;;;1.83;92.61;98654.50;1591823;88;22224;-85
2022/01/16 09:26:39;;;;;;;;;;;;;;;1.90;92.42;98653.86;1601122;88;25979;-85
2022/01/16 09:29:08;;;;;;;;;;;;;;;1.98;92.24;98641.10;1639435;85;25063;-85
2022/01/16 09:31:34;;;;;;;;;;;;;;;2.04;92.05;98644.78;1640999;85;20428;-85
2022/01/16 09:34:01;;;;;;;;;;;;;;;2.11;91.86;98641.55;1623187;86;25536;-85
2022/01/16 09:36:27;;;;;;;;;;;;;;;2.16;91.65;98632.37;1635896;86;22640;-84
2022/01/16 09:38:53;;;;;;;;;;;;;;;2.20;91.42;98619.75;1636304;87;26360;-84
2022/01/16 09:41:20;;;;;;;;;;;;;;;2.23;91.21;98623.53;1635949;87;24497;-84
2022/01/16 09:43:54;;;;;;;;;;;;;;;2.30;91.04;98618.09;1637344;86;20335;-83
2022/01/16 09:46:21;;;;;;;;;;;;;;;2.35;90.83;98616.20;1635441;87;24790;-83
2022/01/16 09:48:47;;;;;;;;;;;;;;;2.42;90.59;98609.09;1637494;86;21940;-84
2022/01/16 09:51:13;;;;;;;;;;;;;;;2.47;90.30;98611.06;1636072;87;26055;-83
2022/01/16 09:53:42;;;;;;;;;;;;;;;2.50;90.04;98606.66;1635884;87;24479;-84
2022/01/16 09:56:09;;;;;;;;;;;;;;;2.51;89.80;98605.73;1636069;87;20281;-84
2022/01/16 09:58:35;;;;;;;;;;;;;;;2.56;89.50;98591.84;1636031;87;24359;-83
2022/01/16 10:01:02;;;;;;;;;;;;;;;2.61;89.20;98595.10;1636020;86;21938;-84
2022/01/16 10:03:32;;;;;;;;;;;;;;;2.62;88.99;98593.73;1620844;86;26013;-84
2022/01/16 10:06:03;;;;;;;;;;;;;;;2.67;88.79;98587.98;1635835;87;24460;-84
2022/01/16 10:08:30;;;;;;;;;;;;;;;2.72;88.59;98583.94;1617334;88;20228;-83
2022/01/16 10:10:58;;;;;;;;;;;;;;;2.80;88.40;98589.66;1595108;88;24872;-83
2022/01/16 10:13:33;;;;;;;;;;;;;;;2.83;88.13;98583.10;1621482;87;22356;-84
2022/01/16 10:15:55;;;;;;;;;;;;;;;2.87;87.84;98583.37;1618278;86;26080;-84
2022/01/16 10:18:35;;;;;;;;;;;;;;;2.90;87.56;98580.22;1620142;86;24425;-84
2022/01/16 10:21:02;;;;;;;;;;;;;;;2.92;87.22;98586.19;1620213;86;20568;-84
2022/01/16 10:23:28;;;;;;;;;;;;;;;2.96;86.89;98583.02;1629471;87;24782;-84
2022/01/16 10:25:54;;;;;;;;;;;;;;;3.01;86.62;98575.09;1620391;87;21978;-84
2022/01/16 10:28:22;;;;;;;;;;;;;;;3.07;86.44;98574.88;1618314;87;26062;-84
2022/01/16 10:30:52;;;;;;;;;;;;;;;3.11;86.20;98568.23;1621175;87;24592;-84
2022/01/16 10:33:21;;;;;;;;;;;;;;;3.16;85.94;98565.50;1613178;86;20281;-83
2022/01/16 10:35:48;;;;;;;;;;;;;;;3.17;85.66;98564.57;1630934;87;24884;-84
2022/01/16 10:38:22;;;;;;;;;;;;;;;3.19;85.43;98566.66;1615320;87;22262;-83
2022/01/16 10:40:51;;;;;;;;;;;;;;;3.24;85.22;98564.29;1590947;88;26090;-84
2022/01/16 10:43:21;;;;;;;;;;;;;;;3.27;84.99;98558.17;1585967;88;24408;-83
2022/01/16 10:45:51;;;;;;;;;;;;;;;3.29;84.70;98556.34;1617797;88;20615;-83
2022/01/16 10:48:18;;;;;;;;;;;;;;;3.31;84.42;98557.14;1613755;87;26056;-83
2022/01/16 10:50:45;;;;;;;;;;;;;;;3.32;84.13;98557.55;1627674;86;22205;-83
2022/01/16 10:53:13;;;;;;;;;;;;;;;3.32;83.85;98555.80;1593528;89;26161;-83
2022/01/16 10:55:41;;;;;;;;;;;;;;;3.36;83.57;98559.09;1600569;88;24595;-83
2022/01/16 10:58:08;;;;;;;;;;;;;;;3.41;83.32;98562.34;1595334;88;20275;-82
2022/01/16 11:00:37;;;;;;;;;;;;;;;3.45;83.06;98558.73;1595618;88;24928;-84
2022/01/16 11:03:05;;;;;;;;;;;;;;;3.47;82.79;98555.64;1595047;87;22038;-84
2022/01/16 11:05:36;;;;;;;;;;;;;;;3.52;82.54;98550.28;1622570;86;25707;-84
2022/01/16 11:08:03;;;;;;;;;;;;;;;3.54;82.39;98542.86;1592611;87;23888;-83
2022/01/16 11:10:31;;;;;;;;;;;;;;;3.55;82.24;98543.23;1628174;86;20229;-84
2022/01/16 11:12:59;;;;;;;;;;;;;;;3.60;82.08;98532.72;1618251;86;24742;-84
2022/01/16 11:15:25;;;;;;;;;;;;;;;3.63;81.88;98530.84;1619287;87;22068;-84
2022/01/16 11:17:51;;;;;;;;;;;;;;;3.68;81.73;98525.02;1626000;86;26008;-84
2022/01/16 11:20:22;;;;;;;;;;;;;;;3.73;81.58;98531.30;1623757;87;24534;-83
2022/01/16 11:23:00;;;;;;;;;;;;;;;3.76;81.45;98526.02;1623154;86;20287;-84
2022/01/16 11:25:31;;;;;;;;;;;;;;;3.77;81.28;98527.23;1621672;86;24734;-83
2022/01/16 11:27:54;;;;;;;;;;;;;;;3.78;81.14;98528.91;1623553;87;22062;-83
2022/01/16 11:30:20;;;;;;;;;;;;;;;3.82;80.95;98527.52;1626760;86;26184;-84
2022/01/16 11:32:46;;;;;;;;;;;;;;;3.85;80.75;98523.49;1624760;88;24487;-84
2022/01/16 11:35:12;;;;;;;;;;;;;;;3.84;80.46;98528.27;1635979;87;20251;-84
2022/01/16 11:37:38;;;;;;;;;;;;;;;3.86;80.23;98535.09;1638288;86;24776;-84
2022/01/16 11:40:21;;;;;;;;;;;;;;;3.91;80.03;98531.00;1636288;87;22067;-84
2022/01/16 11:42:56;;;;;;;;;;;;;;;3.95;79.90;98531.26;1635401;86;26082;-84
2022/01/16 11:45:22;;;;;;;;;;;;;;;4.02;79.80;98527.52;1602141;87;25468;-84
2022/01/16 11:47:58;;;;;;;;;;;;;;;4.07;79.70;98519.10;1606222;88;20309;-84
2022/01/16 11:50:26;;;;;;;;;;;;;;;4.14;79.56;98514.91;1622533;86;24963;-84
2022/01/16 11:52:58;;;;;;;;;;;;;;;4.20;79.44;98523.67;1625336;86;22731;-84
2022/01/16 11:55:26;;;;;;;;;;;;;;;4.28;79.32;98513.00;1592775;88;26606;-84
2022/01/16 11:57:56;;;;;;;;;;;;;;;4.33;79.20;98520.12;1594821;88;24472;-84
2022/01/16 12:00:22;;;;;;;;;;;;;;;4.38;79.08;98515.58;1619686;88;20295;-84
2022/01/16 12:02:50;;;;;;;;;;;;;;;4.46;78.96;98518.69;1635268;87;24740;-84
2022/01/16 12:05:20;;;;;;;;;;;;;;;4.55;78.92;98517.42;1635736;87;21957;-84
2022/01/16 12:07:48;;;;;;;;;;;;;;;4.62;78.89;98518.39;1628573;87;26753;-84
2022/01/16 12:10:16;;;;;;;;;;;;;;;4.73;78.86;98514.48;1626373;86;24564;-84
2022/01/16 12:12:48;;;;;;;;;;;;;;;4.74;78.72;98504.50;1625107;87;20211;-84
2022/01/16 12:15:16;;;;;;;;;;;;;;;4.77;78.58;98501.30;1626779;87;24782;-84
2022/01/16 12:17:49;;;;;;;;;;;;;;;4.84;78.53;98497.98;1627218;86;22793;-85
2022/01/16 12:20:20;;;;;;;;;;;;;;;4.82;78.41;98487.67;1604294;88;26087;-84
2022/01/16 12:23:07;;;;;;;;;;;;;;;4.85;78.29;98479.77;1626875;86;24769;-85
2022/01/16 12:25:39;;;;;;;;;;;;;;;4.89;78.18;98477.41;1632946;85;20263;-85
2022/01/16 12:28:08;;;;;;;;;;;;;;;4.92;78.05;98473.37;1622279;87;25589;-85
2022/01/16 12:30:38;;;;;;;;;;;;;;;4.93;77.92;98466.43;1629416;85;22136;-84
2022/01/16 12:33:18;;;;;;;;;;;;;;;4.94;77.75;98453.86;1609973;86;26896;-84
2022/01/16 12:35:51;;;;;;;;;;;;;;;4.96;77.55;98448.96;1630597;86;25267;-84
2022/01/16 12:38:22;;;;;;;;;;;;;;;4.96;77.37;98452.05;1632760;86;20319;-84
2022/01/16 12:41:05;;;;;;;;;;;;;;;4.99;77.19;98439.77;1630588;87;24763;-84
2022/01/16 12:43:39;;;;;;;;;;;;;;;5.02;77.05;98441.35;1632156;87;21990;-83
2022/01/16 12:46:02;;;;;;;;;;;;;;;5.02;76.91;98440.90;1629391;86;26599;-84
2022/01/16 12:48:29;;;;;;;;;;;;;;;4.98;76.76;98443.27;1628967;86;24451;-83
2022/01/16 12:50:59;;;;;;;;;;;;;;;5.04;76.67;98436.95;1629656;85;20445;-84
2022/01/16 12:53:41;;;;;;;;;;;;;;;5.05;76.54;98434.29;1614139;88;25312;-84
2022/01/16 12:56:18;;;;;;;;;;;;;;;5.10;76.38;98429.33;1622373;86;22053;-85
2022/01/16 12:58:45;;;;;;;;;;;;;;;5.13;76.24;98422.23;1622755;86;26065;-84
2022/01/16 13:01:11;;;;;;;;;;;;;;;5.19;76.08;98423.23;1633347;86;24452;-84
2022/01/16 13:03:37;;;;;;;;;;;;;;;5.26;75.96;98420.73;1623608;87;20249;-84
2022/01/16 13:06:17;;;;;;;;;;;;;;;5.33;75.88;98416.94;1633646;86;24728;-84
2022/01/16 13:09:01;;;;;;;;;;;;;;;5.36;75.79;98419.37;1647792;86;21808;-84
2022/01/16 13:11:29;;;;;;;;;;;;;;;5.40;75.72;98403.20;1623820;86;26661;-84
2022/01/16 13:13:56;;;;;;;;;;;;;;;5.47;75.63;98400.67;1618334;87;24520;-84
2022/01/16 13:16:30;;;;;;;;;;;;;;;5.53;75.52;98403.42;1636637;87;20558;-83
2022/01/16 13:19:00;;;;;;;;;;;;;;;5.54;75.42;98393.42;1633152;86;24743;-83
2022/01/16 13:21:34;;;;;;;;;;;;;;;5.56;75.33;98391.60;1634347;86;22017;-84
2022/01/16 13:23:55;;;;;;;;;;;;;;;5.60;75.22;98382.73;1631056;87;26080;-84
2022/01/16 13:26:32;;;;;;;;;;;;;;;5.67;75.14;98380.22;1627586;86;25168;-84
2022/01/16 13:28:59;;;;;;;;;;;;;;;5.73;75.11;98367.73;1633227;87;20278;-84
2022/01/16 13:31:25;;;;;;;;;;;;;;;5.79;75.02;98368.72;1635621;87;24971;-83